Time;durP1;ratioP1;P1;durP2;ratioP2;P2;SDS_P1;SDS_P2;PMS_P1;PMS_P2;Temp;Humidity;BMP_temperature;BMP_pressure;BME280_temperature;BME280_humidity;BME280_pressure;Samples;Min_cycle;Max_cycle;Signal;HPM_P1;HPM_P2
2022/10/03 04:01:31;;;;;;;5.87;1.27;;;8.70;96.30;;;;;;5645549;22;21020;-81
2022/10/03 04:04:04;;;;;;;5.37;1.30;;;8.70;96.30;;;;;;4999513;28;20404;-78
2022/10/03 04:07:07;;;;;;;9.63;1.60;;;8.70;96.30;;;;;;5016960;28;20439;-78
2022/10/03 04:10:00;;;;;;;8.10;1.93;;;8.70;96.30;;;;;;4996311;28;20412;-77
2022/10/03 04:13:00;;;;;;;13.13;1.90;;;8.70;96.30;;;;;;5001306;28;20437;-78
2022/10/03 04:16:11;;;;;;;6.90;1.93;;;8.70;96.30;;;;;;4949224;28;20429;-80
2022/10/03 04:18:58;;;;;;;6.80;1.97;;;8.70;96.30;;;;;;4961136;28;20432;-81
2022/10/03 04:21:34;;;;;;;5.70;2.07;;;8.70;96.30;;;;;;4988601;28;20533;-80
2022/10/03 04:24:12;;;;;;;5.27;2.07;;;8.70;96.30;;;;;;4983909;28;20445;-81
2022/10/03 04:26:47;;;;;;;13.13;1.90;;;8.70;96.30;;;;;;4998583;28;20568;-80
2022/10/03 04:29:21;;;;;;;6.80;2.03;;;8.70;96.30;;;;;;5003477;28;20424;-81
2022/10/03 04:32:08;;;;;;;10.87;2.57;;;8.70;96.30;;;;;;5019967;28;20435;-81
2022/10/03 04:35:05;;;;;;;11.43;3.40;;;8.70;96.30;;;;;;4979921;28;20451;-81
2022/10/03 04:37:46;;;;;;;4.50;1.33;;;8.60;96.30;;;;;;4946053;28;20417;-81
2022/10/03 04:40:51;;;;;;;9.20;1.83;;;8.70;96.30;;;;;;4996425;28;20420;-81
2022/10/03 04:43:51;;;;;;;7.00;1.80;;;8.60;96.30;;;;;;4977315;28;20424;-80
2022/10/03 04:46:29;;;;;;;9.63;1.83;;;8.60;96.30;;;;;;4976804;28;20459;-77
2022/10/03 04:49:03;;;;;;;8.97;1.73;;;8.60;96.30;;;;;;4976350;28;20468;-76
2022/10/03 04:51:50;;;;;;;5.13;1.43;;;8.60;96.30;;;;;;4976682;28;20440;-76
2022/10/03 04:54:47;;;;;;;5.83;1.20;;;8.60;96.30;;;;;;4993894;28;20885;-77
2022/10/03 04:57:43;;;;;;;3.30;1.00;;;8.60;96.30;;;;;;4976087;28;20409;-76
2022/10/03 05:00:27;;;;;;;3.37;1.03;;;8.60;96.30;;;;;;4993783;28;20907;-78
2022/10/03 05:03:21;;;;;;;4.50;1.20;;;8.60;96.30;;;;;;4993910;28;20488;-79
2022/10/03 05:06:04;;;;;;;2.70;1.10;;;8.60;96.30;;;;;;4994000;28;20812;-80
2022/10/03 05:08:58;;;;;;;6.90;2.00;;;8.60;96.30;;;;;;4993262;28;20385;-79
2022/10/03 05:11:36;;;;;;;5.60;1.40;;;8.60;96.30;;;;;;4993619;28;20516;-80
2022/10/03 05:14:19;;;;;;;6.70;1.90;;;8.60;96.30;;;;;;4993675;28;20790;-80
2022/10/03 05:17:05;;;;;;;10.87;1.93;;;8.60;96.30;;;;;;4993058;28;20420;-80
2022/10/03 05:19:36;;;;;;;5.47;1.60;;;8.60;96.30;;;;;;4976066;28;20408;-80
2022/10/03 05:22:19;;;;;;;7.57;1.70;;;8.60;96.30;;;;;;4993491;28;20440;-80
2022/10/03 05:25:08;;;;;;;3.93;2.40;;;8.60;96.30;;;;;;4975919;28;20504;-80
2022/10/03 05:27:39;;;;;;;3.90;1.70;;;8.60;96.30;;;;;;4992868;28;20909;-80
2022/10/03 05:30:26;;;;;;;8.43;2.20;;;8.60;96.30;;;;;;4975947;28;20424;-81
2022/10/03 05:33:18;;;;;;;10.10;2.93;;;8.60;96.30;;;;;;4987343;28;20462;-80
2022/10/03 05:35:49;;;;;;;5.20;2.60;;;8.60;96.30;;;;;;5012789;28;20400;-81
2022/10/03 05:38:15;;;;;;;4.80;2.47;;;8.60;96.30;;;;;;5012510;28;20393;-81
2022/10/03 05:40:58;;;;;;;6.67;2.17;;;8.60;96.30;;;;;;4995123;28;20438;-81
2022/10/03 05:43:45;;;;;;;10.13;2.23;;;8.60;96.30;;;;;;5013381;28;20161;-81
2022/10/03 05:46:29;;;;;;;11.17;2.73;;;8.60;96.30;;;;;;4996030;28;20484;-81
2022/10/03 05:49:09;;;;;;;9.13;1.90;;;8.60;96.30;;;;;;4994778;28;20763;-81
2022/10/03 05:52:06;;;;;;;8.80;2.70;;;8.60;96.30;;;;;;4995017;28;20939;-82
2022/10/03 05:54:39;;;;;;;7.07;1.70;;;8.60;96.30;;;;;;4995623;28;20410;-81
2022/10/03 05:57:22;;;;;;;5.37;2.23;;;8.60;96.30;;;;;;5012216;28;20398;-81
2022/10/03 06:00:17;;;;;;;6.13;2.33;;;8.60;96.30;;;;;;4995213;28;20404;-81
2022/10/03 06:03:04;;;;;;;11.20;2.73;;;8.60;96.30;;;;;;5012669;28;20902;-81
2022/10/03 06:05:48;;;;;;;15.87;2.60;;;8.60;96.30;;;;;;5012727;28;20451;-81
2022/10/03 06:08:39;;;;;;;7.80;2.20;;;8.60;96.30;;;;;;5012181;28;20446;-82
2022/10/03 06:11:26;;;;;;;6.00;2.23;;;8.60;96.30;;;;;;5012661;28;20515;-81
2022/10/03 06:14:06;;;;;;;13.17;2.97;;;8.60;96.30;;;;;;5012635;28;20384;-81
2022/10/03 06:16:50;;;;;;;7.50;3.60;;;8.60;96.30;;;;;;5012642;28;20482;-81
2022/10/03 06:19:22;;;;;;;12.67;2.43;;;8.70;96.30;;;;;;5012490;28;20436;-81
2022/10/03 06:22:25;;;;;;;8.57;2.10;;;8.70;96.30;;;;;;5012589;28;20435;-81
2022/10/03 06:25:27;;;;;;;7.23;2.40;;;8.70;96.30;;;;;;4994684;28;20419;-81
2022/10/03 06:28:23;;;;;;;10.70;2.63;;;8.80;96.30;;;;;;4994505;28;20430;-81
2022/10/03 06:31:12;;;;;;;6.83;2.10;;;8.80;96.30;;;;;;4994977;28;20833;-81
2022/10/03 06:33:53;;;;;;;11.37;2.77;;;8.90;96.30;;;;;;4995015;28;20454;-80
2022/10/03 06:36:44;;;;;;;6.93;2.30;;;8.90;96.30;;;;;;4994701;28;20801;-80
2022/10/03 06:39:41;;;;;;;12.60;2.40;;;8.90;96.30;;;;;;4993943;28;20969;-80
2022/10/03 06:42:43;;;;;;;12.50;2.83;;;8.90;96.30;;;;;;4957920;28;20438;-80
2022/10/03 06:45:31;;;;;;;7.33;2.30;;;8.90;96.30;;;;;;4974927;28;20496;-78
2022/10/03 06:48:24;;;;;;;10.63;2.90;;;8.90;96.30;;;;;;4994872;28;20404;-77
2022/10/03 06:51:08;;;;;;;12.63;2.77;;;9.00;96.30;;;;;;4979062;28;20465;-77
2022/10/03 06:54:06;;;;;;;11.30;2.77;;;9.00;96.30;;;;;;5006542;28;21030;-79
2022/10/03 06:56:57;;;;;;;7.93;1.93;;;9.00;96.30;;;;;;5015804;28;20407;-78
2022/10/03 06:59:28;;;;;;;8.60;2.20;;;9.10;96.30;;;;;;5014713;28;20514;-78
2022/10/03 07:02:19;;;;;;;8.50;2.20;;;9.10;96.30;;;;;;5014749;28;20450;-80
2022/10/03 07:05:06;;;;;;;6.20;2.30;;;9.00;96.30;;;;;;4997775;28;20419;-77
2022/10/03 07:07:56;;;;;;;10.53;3.00;;;9.10;96.30;;;;;;5013708;28;20430;-77
2022/10/03 07:10:43;;;;;;;5.60;3.07;;;9.10;96.30;;;;;;5014233;28;20401;-77
2022/10/03 07:13:17;;;;;;;10.57;3.60;;;9.10;96.30;;;;;;5015477;28;20395;-77
2022/10/03 07:16:08;;;;;;;17.53;2.83;;;9.10;96.30;;;;;;5015420;28;20430;-76
2022/10/03 07:19:02;;;;;;;10.90;3.03;;;9.20;96.30;;;;;;5014850;28;20491;-76
2022/10/03 07:21:47;;;;;;;8.00;2.67;;;9.20;96.30;;;;;;5015282;28;20927;-78
2022/10/03 07:24:38;;;;;;;10.33;2.40;;;9.10;96.30;;;;;;5015043;28;20994;-76
2022/10/03 07:27:11;;;;;;;8.90;2.40;;;9.20;96.30;;;;;;5014575;28;21013;-76
2022/10/03 07:29:52;;;;;;;7.43;2.10;;;9.20;96.30;;;;;;5014008;28;20401;-76
2022/10/03 07:32:39;;;;;;;10.50;2.57;;;9.40;96.30;;;;;;5013308;28;21005;-75
2022/10/03 07:41:20;;;;;;;7.40;2.20;;;9.60;96.30;;;;;;5034708;28;20462;-76
2022/10/03 07:43:54;;;;;;;9.10;2.40;;;9.60;96.30;;;;;;5034555;28;20482;-76
2022/10/03 07:46:36;;;;;;;9.63;2.80;;;9.70;96.30;;;;;;5022837;28;20944;-77
2022/10/03 07:49:11;;;;;;;21.87;3.43;;;9.90;96.30;;;;;;5011971;28;20431;-75
2022/10/03 07:51:59;;;;;;;5.90;1.90;;;9.90;96.30;;;;;;5014503;28;20494;-80
2022/10/03 07:54:59;;;;;;;11.80;2.23;;;10.20;96.30;;;;;;5013416;28;20415;-76
2022/10/03 07:57:36;;;;;;;10.00;1.97;;;10.50;96.30;;;;;;4996964;28;20785;-74
2022/10/03 08:00:25;;;;;;;15.73;3.03;;;10.40;96.30;;;;;;4994797;28;20447;-75
2022/10/03 08:03:35;;;;;;;16.30;2.47;;;10.40;96.30;;;;;;4983924;28;20495;-75
2022/10/03 08:06:19;;;;;;;7.40;2.00;;;10.50;96.30;;;;;;4933247;28;20979;-77
2022/10/03 08:09:30;;;;;;;12.77;2.47;;;10.30;96.30;;;;;;4994243;28;20412;-77
2022/10/03 08:12:19;;;;;;;14.37;1.83;;;10.10;96.30;;;;;;4984121;28;20476;-77
2022/10/03 08:15:11;;;;;;;9.80;3.00;;;10.10;96.30;;;;;;5014207;28;20486;-77
2022/10/03 08:18:15;;;;;;;9.33;2.30;;;10.20;96.30;;;;;;5010565;28;20463;-77
2022/10/03 08:21:00;;;;;;;7.53;2.10;;;10.20;96.30;;;;;;4989515;28;20450;-77
2022/10/03 08:23:42;;;;;;;11.83;1.80;;;10.30;96.30;;;;;;4994408;28;20503;-77
2022/10/03 08:26:10;;;;;;;8.57;2.33;;;10.30;96.30;;;;;;4994408;28;20449;-76
2022/10/03 08:28:40;;;;;;;16.03;3.10;;;10.20;96.30;;;;;;4985270;28;20518;-76
2022/10/03 08:31:18;;;;;;;15.67;2.63;;;10.50;96.30;;;;;;4978526;28;20444;-78
2022/10/03 08:34:06;;;;;;;13.60;2.47;;;10.70;96.30;;;;;;5003952;28;20458;-77
2022/10/03 08:37:01;;;;;;;12.77;2.50;;;10.60;96.30;;;;;;5013768;28;20431;-77
2022/10/03 08:39:45;;;;;;;5.93;2.07;;;10.70;96.30;;;;;;4993425;28;20410;-77
2022/10/03 08:42:27;;;;;;;6.70;1.80;;;10.60;96.30;;;;;;4994102;28;20939;-77
2022/10/03 08:45:03;;;;;;;8.00;1.90;;;10.60;96.30;;;;;;4976623;28;20420;-77
2022/10/03 08:47:50;;;;;;;11.40;2.10;;;10.80;96.30;;;;;;5012499;28;20959;-77
2022/10/03 08:50:33;;;;;;;7.97;1.67;;;10.90;96.30;;;;;;4995953;28;20412;-77
2022/10/03 08:53:22;;;;;;;8.20;2.00;;;10.90;96.30;;;;;;5013520;28;21007;-77
2022/10/03 08:55:55;;;;;;;11.03;3.30;;;10.80;96.30;;;;;;5012878;28;20486;-76
2022/10/03 08:58:23;;;;;;;6.13;1.97;;;10.70;96.30;;;;;;4995586;28;20966;-76
2022/10/03 09:01:07;;;;;;;9.13;1.53;;;11.00;96.30;;;;;;5013180;28;20490;-76
2022/10/03 09:03:45;;;;;;;9.57;2.10;;;11.20;96.30;;;;;;5013178;28;20447;-76
2022/10/03 09:06:33;;;;;;;6.77;2.50;;;11.10;96.30;;;;;;5013285;28;20963;-77
2022/10/03 09:09:36;;;;;;;5.87;1.87;;;11.00;96.30;;;;;;4992131;28;20492;-76
2022/10/03 09:12:17;;;;;;;7.07;1.83;;;11.10;96.30;;;;;;4992345;28;20428;-77
2022/10/03 09:14:51;;;;;;;4.13;1.90;;;10.90;96.30;;;;;;4993368;28;20389;-77
2022/10/03 09:17:38;;;;;;;8.07;2.87;;;11.40;96.30;;;;;;4993478;28;20452;-77
2022/10/03 09:20:25;;;;;;;13.23;2.00;;;12.90;96.30;;;;;;4993374;28;20797;-77
2022/10/03 09:23:21;;;;;;;7.97;1.53;;;13.60;96.30;;;;;;4992280;28;20912;-77
2022/10/03 09:25:56;;;;;;;6.87;1.60;;;13.00;96.30;;;;;;4975831;28;20444;-76
2022/10/03 09:28:59;;;;;;;5.30;1.90;;;12.00;96.30;;;;;;4993509;28;20439;-76
2022/10/03 09:31:56;;;;;;;6.73;1.90;;;11.30;96.30;;;;;;4996382;28;20436;-77
2022/10/03 09:34:59;;;;;;;7.90;1.80;;;11.20;96.30;;;;;;4982128;28;20890;-78
2022/10/03 09:37:36;;;;;;;5.63;1.33;;;10.90;96.30;;;;;;5012748;28;20766;-79
2022/10/03 09:40:14;;;;;;;11.60;2.00;;;10.80;96.30;;;;;;5013018;28;20765;-76
2022/10/03 09:43:15;;;;;;;8.63;1.87;;;10.70;96.30;;;;;;5012529;28;20396;-77
2022/10/03 09:46:10;;;;;;;7.70;1.73;;;10.50;96.30;;;;;;5012668;28;20979;-77
2022/10/03 09:48:47;;;;;;;12.93;2.10;;;10.40;96.30;;;;;;4995010;28;20487;-76
2022/10/03 09:51:28;;;;;;;8.77;2.27;;;10.20;96.30;;;;;;5011216;28;21016;-77
2022/10/03 09:54:00;;;;;;;8.00;1.80;;;10.40;96.30;;;;;;5013037;28;20427;-77
2022/10/03 09:56:43;;;;;;;4.80;1.40;;;11.30;96.30;;;;;;5009679;28;20423;-76
2022/10/03 09:59:24;;;;;;;4.87;1.60;;;13.10;96.30;;;;;;5013975;28;20396;-77
2022/10/03 10:01:58;;;;;;;9.80;2.60;;;14.40;96.30;;;;;;5016117;28;20467;-76
2022/10/03 10:05:04;;;;;;;4.63;1.43;;;14.60;96.30;;;;;;5000516;28;20412;-76
2022/10/03 10:07:58;;;;;;;4.57;1.20;;;13.50;96.30;;;;;;4963065;28;20546;-75
2022/10/03 10:10:36;;;;;;;5.07;1.50;;;12.60;96.30;;;;;;4992747;28;20471;-77
2022/10/03 10:13:14;;;;;;;6.23;2.17;;;12.30;96.30;;;;;;5002671;28;20423;-76
2022/10/03 10:16:10;;;;;;;7.37;1.70;;;12.20;96.30;;;;;;5013187;28;20403;-77
2022/10/03 10:19:06;;;;;;;6.20;1.17;;;12.70;96.30;;;;;;5018557;28;20412;-76
2022/10/03 10:21:49;;;;;;;6.33;1.27;;;12.90;96.30;;;;;;5014628;28;20415;-76
2022/10/03 10:24:46;;;;;;;7.83;2.20;;;12.80;96.30;;;;;;5015929;28;20498;-75
2022/10/03 10:27:37;;;;;;;6.57;1.53;;;12.70;96.30;;;;;;5015834;28;20501;-75
2022/10/03 10:30:09;;;;;;;7.90;1.73;;;13.20;96.30;;;;;;5016310;28;20883;-76
2022/10/03 10:33:14;;;;;;;6.80;1.60;;;13.80;96.30;;;;;;5015989;28;20427;-77
2022/10/03 10:36:05;;;;;;;4.50;1.53;;;13.50;96.30;;;;;;5015982;28;20753;-75
2022/10/03 10:38:38;;;;;;;5.30;1.20;;;12.90;96.30;;;;;;5015632;28;20411;-76
2022/10/03 10:41:13;;;;;;;10.23;2.17;;;12.50;96.30;;;;;;5015892;28;20494;-75
2022/10/03 10:43:52;;;;;;;9.00;1.57;;;12.90;96.30;;;;;;5015774;28;20414;-75
2022/10/03 10:46:41;;;;;;;11.27;1.53;;;12.80;96.30;;;;;;5008846;28;20846;-75
2022/10/03 10:49:37;;;;;;;8.40;1.90;;;12.50;96.30;;;;;;5015717;28;20888;-75
2022/10/03 10:52:26;;;;;;;4.60;1.47;;;12.70;96.30;;;;;;5015672;28;20514;-74
2022/10/03 10:55:29;;;;;;;6.40;1.53;;;13.20;96.30;;;;;;5015622;28;20415;-76
2022/10/03 10:58:32;;;;;;;3.30;1.20;;;13.50;96.30;;;;;;5006682;28;20416;-74
2022/10/03 11:01:16;;;;;;;19.10;2.00;;;13.20;96.30;;;;;;5005831;28;20454;-76
2022/10/03 11:04:01;;;;;;;5.13;1.50;;;13.50;96.30;;;;;;5000782;28;21292;-75
2022/10/03 11:06:40;;;;;;;8.37;1.57;;;14.30;96.30;;;;;;5013489;28;20457;-75
2022/10/03 11:09:43;;;;;;;4.27;1.50;;;14.70;96.30;;;;;;4997148;28;20533;-74
2022/10/03 11:12:36;;;;;;;9.20;1.83;;;14.20;96.30;;;;;;4997923;28;20439;-74
2022/10/03 11:15:20;;;;;;;7.33;1.83;;;14.00;96.30;;;;;;4997631;28;20411;-74
2022/10/03 11:18:17;;;;;;;7.77;1.70;;;13.80;96.30;;;;;;5014621;28;20399;-74
2022/10/03 11:20:56;;;;;;;6.27;1.53;;;13.20;96.30;;;;;;4981279;28;20534;-75
2022/10/03 11:23:21;;;;;;;3.53;1.40;;;13.10;96.30;;;;;;5014661;28;20423;-75
2022/10/03 11:26:05;;;;;;;10.43;2.47;;;12.80;96.30;;;;;;5015073;28;20509;-75
2022/10/03 11:29:01;;;;;;;12.23;1.53;;;12.80;96.30;;;;;;4985601;28;20174;-74
2022/10/03 11:31:45;;;;;;;4.30;2.13;;;13.00;96.30;;;;;;4995436;28;20431;-75
2022/10/03 11:34:30;;;;;;;6.37;1.57;;;13.00;96.30;;;;;;4981443;28;20405;-75
2022/10/03 11:37:22;;;;;;;5.93;1.50;;;12.90;96.30;;;;;;5014630;28;20408;-75
2022/10/03 11:40:22;;;;;;;9.23;1.63;;;13.60;96.30;;;;;;4987707;28;20955;-74
2022/10/03 11:43:15;;;;;;;6.53;1.60;;;14.20;96.30;;;;;;4971231;28;20487;-74
2022/10/03 11:45:50;;;;;;;6.50;1.50;;;14.00;96.30;;;;;;4995034;28;20460;-75
2022/10/03 11:48:45;;;;;;;3.13;1.07;;;13.60;96.30;;;;;;4994892;28;20487;-75
2022/10/03 11:51:33;;;;;;;7.23;1.60;;;13.10;96.30;;;;;;4977690;28;20444;-74
2022/10/03 11:54:28;;;;;;;7.03;1.70;;;12.80;96.30;;;;;;4995136;28;20452;-75
2022/10/03 11:57:14;;;;;;;6.13;1.30;;;13.00;96.30;;;;;;4993903;28;20437;-75
2022/10/03 12:00:02;;;;;;;6.63;1.37;;;13.10;96.30;;;;;;4994921;28;20420;-74
2022/10/03 12:02:55;;;;;;;6.30;1.33;;;13.20;96.30;;;;;;4994606;28;21041;-76
2022/10/03 12:05:32;;;;;;;7.50;1.67;;;12.90;96.30;;;;;;4994772;28;20475;-74
2022/10/03 12:10:45;;;;;;;5.93;1.57;;;12.40;96.30;;;;;;4994708;28;20475;-74
2022/10/03 12:13:19;;;;;;;8.30;2.17;;;12.20;96.30;;;;;;5008710;28;20787;-74
2022/10/03 12:15:47;;;;;;;5.00;1.30;;;12.40;96.30;;;;;;5014243;28;20165;-75
2022/10/03 12:18:24;;;;;;;3.53;1.47;;;12.70;96.30;;;;;;5013902;28;20465;-75
2022/10/03 12:21:10;;;;;;;6.97;1.97;;;13.00;96.30;;;;;;5008927;28;20489;-75
2022/10/03 12:24:12;;;;;;;2.60;1.13;;;12.90;96.30;;;;;;5003567;28;20411;-74
2022/10/03 12:27:00;;;;;;;10.33;2.83;;;12.90;96.30;;;;;;5002511;28;20546;-78
2022/10/03 12:29:31;;;;;;;7.63;1.70;;;13.20;96.30;;;;;;5005053;28;20518;-74
2022/10/03 12:32:25;;;;;;;2.90;1.43;;;13.30;96.30;;;;;;4998700;28;20932;-75
2022/10/03 12:35:18;;;;;;;5.60;1.63;;;13.00;96.30;;;;;;5005114;28;20446;-75
2022/10/03 12:38:01;;;;;;;10.40;1.30;;;12.70;96.30;;;;;;4999354;28;20420;-75
2022/10/03 12:40:38;;;;;;;10.40;2.27;;;12.60;96.30;;;;;;5001087;28;20411;-75
2022/10/03 12:43:41;;;;;;;3.90;1.10;;;12.80;96.30;;;;;;5002840;28;20919;-75
2022/10/03 12:46:13;;;;;;;6.57;1.70;;;12.90;96.30;;;;;;5001214;28;20531;-75
2022/10/03 12:49:02;;;;;;;11.03;1.57;;;13.20;96.30;;;;;;5001074;28;20459;-75
2022/10/03 12:51:40;;;;;;;3.60;1.30;;;13.30;96.30;;;;;;5003321;28;20791;-76
2022/10/03 12:54:22;;;;;;;11.93;1.30;;;13.50;96.30;;;;;;4996459;28;20503;-75
2022/10/03 12:57:03;;;;;;;10.57;1.60;;;13.40;96.30;;;;;;5006031;28;20940;-75
2022/10/03 12:59:41;;;;;;;6.07;1.90;;;13.50;96.30;;;;;;5003190;28;20413;-75
2022/10/03 13:02:37;;;;;;;5.50;1.30;;;13.60;96.30;;;;;;4991872;28;20498;-74
2022/10/03 13:05:28;;;;;;;7.77;1.67;;;13.60;96.30;;;;;;4978563;28;20508;-76
2022/10/03 13:08:18;;;;;;;7.13;1.30;;;13.50;96.30;;;;;;4993382;28;20397;-76
2022/10/03 13:10:48;;;;;;;6.73;1.57;;;13.30;96.30;;;;;;4993583;28;20421;-76
2022/10/03 13:13:32;;;;;;;10.80;1.50;;;13.10;96.30;;;;;;4993695;28;20774;-76
2022/10/03 13:16:22;;;;;;;5.93;1.30;;;13.10;96.30;;;;;;4993542;28;20425;-78
2022/10/03 13:18:57;;;;;;;5.97;1.63;;;13.20;96.30;;;;;;4993465;28;20404;-76
2022/10/03 13:21:42;;;;;;;5.23;1.60;;;13.00;96.30;;;;;;5011783;28;20518;-76
2022/10/03 13:24:21;;;;;;;4.97;1.30;;;13.20;96.30;;;;;;5010359;28;20439;-76
2022/10/03 13:27:24;;;;;;;7.30;1.50;;;13.30;96.30;;;;;;4995367;28;20436;-76
2022/10/03 13:30:14;;;;;;;9.50;1.17;;;13.40;96.30;;;;;;5013030;28;20964;-77
2022/10/03 13:32:45;;;;;;;7.00;1.63;;;13.30;96.30;;;;;;5013048;28;20799;-76
2022/10/03 13:35:57;;;;;;;4.53;1.33;;;13.30;96.30;;;;;;5012855;28;20414;-76
2022/10/03 13:38:42;;;;;;;11.13;1.80;;;13.50;96.30;;;;;;5013005;28;20955;-76
2022/10/03 13:41:40;;;;;;;5.20;1.70;;;13.20;96.30;;;;;;5011904;28;20779;-76
2022/10/03 13:44:12;;;;;;;5.90;1.27;;;13.00;96.30;;;;;;5012439;28;20416;-76
2022/10/03 13:47:07;;;;;;;11.20;2.33;;;12.90;96.30;;;;;;4996962;28;20823;-76
2022/10/03 13:49:50;;;;;;;5.93;1.50;;;13.00;96.30;;;;;;4962709;28;20414;-76
2022/10/03 13:52:37;;;;;;;5.90;1.20;;;13.10;96.30;;;;;;5012931;28;20424;-77
2022/10/03 13:55:18;;;;;;;7.30;1.50;;;13.10;96.30;;;;;;5011553;28;20407;-76
2022/10/03 13:58:22;;;;;;;7.90;1.63;;;12.80;96.30;;;;;;5012135;28;21223;-76
2022/10/03 14:01:20;;;;;;;8.37;2.37;;;12.80;96.30;;;;;;4965543;28;20458;-76
2022/10/03 14:04:04;;;;;;;7.63;1.20;;;12.90;96.30;;;;;;4980927;28;20464;-77
2022/10/03 14:06:47;;;;;;;4.57;1.50;;;12.90;96.30;;;;;;4987434;28;20460;-76
2022/10/03 14:09:37;;;;;;;8.53;1.63;;;13.00;96.30;;;;;;4998594;28;21044;-76
2022/10/03 14:12:32;;;;;;;8.47;1.50;;;13.10;96.30;;;;;;4999617;28;20523;-76
2022/10/03 14:15:30;;;;;;;8.67;1.40;;;13.10;96.30;;;;;;5004824;28;20412;-76
2022/10/03 14:18:33;;;;;;;5.10;1.37;;;13.10;96.30;;;;;;4999291;28;20947;-76
2022/10/03 14:21:21;;;;;;;7.77;1.60;;;12.80;96.30;;;;;;5006098;28;20428;-76
2022/10/03 14:24:19;;;;;;;6.40;1.40;;;12.70;96.30;;;;;;4994923;28;20491;-76
2022/10/03 14:27:00;;;;;;;4.93;1.13;;;12.70;96.30;;;;;;4986037;28;20466;-76
2022/10/03 14:29:33;;;;;;;5.90;1.50;;;12.50;96.30;;;;;;5000018;28;20415;-76
2022/10/03 14:32:08;;;;;;;9.07;1.73;;;12.40;96.30;;;;;;4992647;28;20428;-76
2022/10/03 14:34:49;;;;;;;6.43;1.57;;;12.40;96.30;;;;;;4999003;28;20404;-76
2022/10/03 14:37:14;;;;;;;5.07;1.37;;;12.40;96.30;;;;;;4982763;28;20826;-76
2022/10/03 14:39:54;;;;;;;8.33;1.40;;;12.40;96.30;;;;;;4980866;28;20425;-77
2022/10/03 14:42:27;;;;;;;5.57;1.07;;;12.40;96.30;;;;;;5005721;28;20204;-77
2022/10/03 14:45:08;;;;;;;10.83;1.00;;;12.30;96.30;;;;;;4989622;28;20425;-77
2022/10/03 14:47:37;;;;;;;7.50;1.43;;;12.30;96.30;;;;;;5006254;28;20447;-76
2022/10/03 14:50:04;;;;;;;4.73;2.03;;;12.40;96.30;;;;;;4977614;28;21115;-77
2022/10/03 14:52:53;;;;;;;2.23;1.10;;;12.40;96.30;;;;;;5008861;28;20428;-76
2022/10/03 14:55:24;;;;;;;12.03;1.50;;;12.30;96.30;;;;;;4996131;28;20405;-76
2022/10/03 14:58:05;;;;;;;6.90;2.23;;;12.40;96.30;;;;;;4995406;28;20971;-77
2022/10/03 15:00:42;;;;;;;6.30;1.40;;;12.40;96.30;;;;;;5004252;28;20970;-76
2022/10/03 15:03:16;;;;;;;4.10;1.10;;;12.40;96.30;;;;;;4995257;28;20777;-77
2022/10/03 15:05:58;;;;;;;6.87;1.43;;;12.40;96.30;;;;;;4994552;28;20487;-76
2022/10/03 15:08:38;;;;;;;7.17;1.20;;;12.30;96.30;;;;;;4996688;28;20435;-77
2022/10/03 15:11:05;;;;;;;3.27;1.10;;;12.30;96.30;;;;;;5008034;28;20485;-76
2022/10/03 15:13:43;;;;;;;5.60;1.43;;;12.30;96.30;;;;;;4998365;28;20482;-76
2022/10/03 15:16:13;;;;;;;5.07;1.23;;;12.40;96.30;;;;;;5007758;28;20491;-76
2022/10/03 15:18:44;;;;;;;4.80;1.30;;;12.30;96.30;;;;;;5004825;28;20414;-75
2022/10/03 15:21:15;;;;;;;10.37;1.83;;;12.30;96.30;;;;;;4995969;28;20436;-74
2022/10/03 15:23:44;;;;;;;6.60;1.43;;;12.30;96.30;;;;;;4997572;28;20412;-74
2022/10/03 15:26:20;;;;;;;4.40;1.10;;;12.10;96.30;;;;;;4988585;28;20467;-77
2022/10/03 15:28:49;;;;;;;3.37;1.03;;;12.10;96.30;;;;;;5002029;28;20420;-75
2022/10/03 15:31:31;;;;;;;4.20;1.07;;;12.00;96.30;;;;;;4979653;28;20467;-74
2022/10/03 15:33:57;;;;;;;4.23;1.40;;;12.00;96.30;;;;;;4993671;28;20935;-74
2022/10/03 15:36:26;;;;;;;5.00;1.23;;;11.90;96.30;;;;;;4995674;28;20479;-76
2022/10/03 15:38:56;;;;;;;7.80;1.23;;;11.90;96.30;;;;;;5001164;28;20978;-74
2022/10/03 15:41:34;;;;;;;4.00;1.50;;;11.70;96.30;;;;;;5005092;28;20940;-75
2022/10/03 15:44:09;;;;;;;5.17;1.60;;;11.70;96.30;;;;;;4994314;28;20408;-75
2022/10/03 15:47:06;;;;;;;5.50;1.53;;;11.60;96.30;;;;;;5000976;28;20459;-78
2022/10/03 15:49:37;;;;;;;6.80;1.33;;;11.60;96.30;;;;;;4967037;28;21004;-76
2022/10/03 15:52:28;;;;;;;3.50;1.07;;;11.50;96.30;;;;;;4992777;28;20437;-75
2022/10/03 15:54:58;;;;;;;3.03;1.10;;;11.40;96.30;;;;;;5006797;28;20431;-76
2022/10/03 15:57:34;;;;;;;1.30;0.93;;;11.30;96.30;;;;;;4999210;28;20416;-78
2022/10/03 16:00:01;;;;;;;5.00;1.77;;;11.20;96.30;;;;;;4983057;28;20432;-76
2022/10/03 16:02:51;;;;;;;4.17;1.37;;;11.10;96.30;;;;;;5006085;28;20459;-75
2022/10/03 16:05:21;;;;;;;6.07;0.90;;;10.90;96.30;;;;;;5006690;28;20811;-76
2022/10/03 16:07:53;;;;;;;11.27;2.23;;;10.80;96.30;;;;;;5007729;28;20465;-77
2022/10/03 16:10:25;;;;;;;4.00;1.43;;;10.70;96.30;;;;;;5006787;28;20479;-76
2022/10/03 16:12:55;;;;;;;7.30;1.60;;;10.60;96.30;;;;;;5000296;28;20523;-75
2022/10/03 16:15:51;;;;;;;7.27;1.37;;;10.50;96.30;;;;;;4997155;28;20420;-75
2022/10/03 16:18:17;;;;;;;9.87;1.90;;;10.50;96.30;;;;;;4992810;28;20459;-76
2022/10/03 16:30:17;;;;;;;5.20;1.30;;;10.60;96.30;;;;;;5002989;23;20403;-76
2022/10/03 16:32:59;;;;;;;8.20;1.53;;;10.60;96.30;;;;;;5001888;28;20420;-77
2022/10/03 16:35:49;;;;;;;7.30;1.30;;;10.60;96.30;;;;;;5013935;28;20995;-76
2022/10/03 16:38:28;;;;;;;12.30;1.83;;;10.60;96.30;;;;;;4995506;28;20882;-77
2022/10/03 16:41:01;;;;;;;8.77;1.90;;;10.60;96.30;;;;;;5013972;28;20431;-77
2022/10/03 16:43:30;;;;;;;10.10;1.57;;;10.60;96.30;;;;;;5013614;28;20396;-77
2022/10/03 16:46:00;;;;;;;11.00;1.50;;;10.60;96.30;;;;;;5012549;28;21045;-77
2022/10/03 16:51:24;;;;;;;6.63;2.00;;;10.60;96.30;;;;;;5004446;28;20518;-77
2022/10/03 16:53:53;;;;;;;4.23;1.40;;;10.50;96.30;;;;;;5007039;28;20515;-77
2022/10/03 16:56:28;;;;;;;5.33;1.70;;;10.60;96.30;;;;;;5001529;28;20879;-78
2022/10/03 16:58:59;;;;;;;10.77;3.57;;;10.60;96.30;;;;;;4996642;28;20421;-78
2022/10/03 17:01:41;;;;;;;4.00;1.67;;;10.60;96.30;;;;;;5014131;28;20428;-78
2022/10/03 17:04:18;;;;;;;4.77;1.80;;;10.50;96.30;;;;;;5013764;28;20427;-78
2022/10/03 17:06:47;;;;;;;10.40;2.80;;;10.50;96.30;;;;;;5013337;28;20459;-77
2022/10/03 17:09:34;;;;;;;8.57;1.77;;;10.50;96.30;;;;;;5014245;28;20888;-78
2022/10/03 17:12:03;;;;;;;4.03;1.40;;;10.50;96.30;;;;;;4996410;28;20887;-78
2022/10/03 17:14:40;;;;;;;5.70;1.40;;;10.50;96.30;;;;;;5013648;28;20416;-78
2022/10/03 17:17:15;;;;;;;5.90;2.13;;;10.60;96.30;;;;;;4995492;28;20415;-78
2022/10/03 17:19:48;;;;;;;4.87;1.47;;;10.60;96.30;;;;;;5013471;28;20458;-78
2022/10/03 17:22:21;;;;;;;7.63;1.53;;;10.60;96.30;;;;;;5013296;28;20403;-78
2022/10/03 17:25:06;;;;;;;4.80;1.77;;;10.60;96.30;;;;;;5013338;28;20462;-78
2022/10/03 17:27:38;;;;;;;6.70;1.80;;;10.60;96.30;;;;;;5012896;28;20455;-78
2022/10/03 17:30:05;;;;;;;4.27;1.70;;;10.60;96.30;;;;;;5012777;28;20512;-78
2022/10/03 17:32:41;;;;;;;3.20;1.47;;;10.60;96.30;;;;;;4995049;28;20404;-78
2022/10/03 17:35:49;;;;;;;5.20;1.70;;;10.60;96.30;;;;;;5012233;28;20419;-77
2022/10/03 17:38:35;;;;;;;5.57;1.97;;;10.60;96.30;;;;;;4963023;28;21089;-78
2022/10/03 17:41:14;;;;;;;4.23;2.00;;;10.60;96.30;;;;;;4991463;28;20488;-78
2022/10/03 17:43:47;;;;;;;9.60;2.50;;;10.60;96.30;;;;;;4991470;28;20425;-76
2022/10/03 17:46:28;;;;;;;7.93;2.20;;;10.60;96.30;;;;;;4992707;28;20441;-77
2022/10/03 17:49:18;;;;;;;5.97;1.40;;;10.60;96.30;;;;;;4991918;28;20408;-77
2022/10/03 17:51:47;;;;;;;5.33;1.60;;;10.60;96.30;;;;;;4992080;28;20496;-78
2022/10/03 17:54:22;;;;;;;6.73;2.03;;;10.60;96.30;;;;;;4992348;28;20440;-77
2022/10/03 17:56:52;;;;;;;4.87;1.40;;;10.60;96.30;;;;;;4992055;28;20416;-78
2022/10/03 17:59:24;;;;;;;5.77;1.50;;;10.60;96.30;;;;;;4995013;28;20409;-80
2022/10/03 18:01:54;;;;;;;3.40;1.60;;;10.50;96.30;;;;;;4994071;28;20429;-79
2022/10/03 18:04:30;;;;;;;5.70;1.50;;;10.40;96.30;;;;;;4992536;28;20471;-78
2022/10/03 18:07:05;;;;;;;9.67;1.63;;;10.40;96.30;;;;;;4991850;28;20458;-78
2022/10/03 18:09:40;;;;;;;6.00;2.03;;;10.20;96.30;;;;;;4992149;28;20397;-78
2022/10/03 18:12:21;;;;;;;9.67;2.13;;;10.20;96.30;;;;;;4992422;28;20906;-78
2022/10/03 18:14:52;;;;;;;3.67;1.33;;;10.20;96.30;;;;;;4992313;28;20408;-78
2022/10/03 18:17:47;;;;;;;7.93;1.70;;;10.10;96.30;;;;;;4991764;28;20408;-78
2022/10/03 18:20:46;;;;;;;8.20;2.00;;;10.10;96.30;;;;;;4998742;28;20495;-78
2022/10/03 18:23:30;;;;;;;4.77;1.50;;;10.00;96.30;;;;;;4992123;28;20397;-78
2022/10/03 18:26:11;;;;;;;17.03;1.93;;;10.00;96.30;;;;;;4985639;28;20487;-78
2022/10/03 18:28:44;;;;;;;3.73;1.40;;;9.90;96.30;;;;;;4987124;28;20416;-79
2022/10/03 18:31:16;;;;;;;4.90;1.40;;;9.90;96.30;;;;;;5005806;28;20453;-80
2022/10/03 18:34:01;;;;;;;13.60;2.13;;;9.90;96.30;;;;;;5002138;28;20941;-79